Current Conditions
Lluvia




Pressure
1022.92 (hPa) - 30.21 (inHG)
Visibility

10.0 (km) - 6.2 (miles)
   Temperature
11  °C
52°F
9  °C
Dewpoint
88  %
 Humidity
   Wind Speed
26  km/h
14  kts
16  mph
7.2  m/s
   Wind Direction
 50°
North East
   Airport Data
LELL
Location Sabadell 5 km (3.11 mi)
Metar :LELL 211700Z AUTO 05014G26KT 350V110 9999 -RA FEW014 BKN022 BKN027 11/09 Q1023
Tue 21st January 18:00 pm
   Raw Metar Info
Raw METAR is the most common format in the world for the transmission of observational weather data. It is highly standardized through the International Civil Aviation Organization (ICAO), which allows it to be understood throughout most of the world.
   API Info
Data Provided by
https://www.checkwx.com/weather/LELL
   © Info
CSS/SVG/PHP scripts were developed by weather34.com for use in the weather34 template © 2015-2020

Guide Info provided by Metar-Wikipedia